sensor_id;sensor_type;location;lat;lon;timestamp;P1;durP1;ratioP1;P2;durP2;ratioP2
69161;SDS011;56269;51.738;21.652;2022-08-21T00:01:52;10.57;;;6.00;;
69161;SDS011;56269;51.738;21.652;2022-08-21T00:04:19;11.77;;;5.43;;
69161;SDS011;56269;51.738;21.652;2022-08-21T00:06:45;8.82;;;5.60;;
69161;SDS011;56269;51.738;21.652;2022-08-21T00:09:11;8.93;;;5.57;;
69161;SDS011;56269;51.738;21.652;2022-08-21T00:11:37;11.52;;;5.70;;
69161;SDS011;56269;51.738;21.652;2022-08-21T00:14:06;12.05;;;5.80;;
69161;SDS011;56269;51.738;21.652;2022-08-21T00:16:33;11.65;;;5.70;;
69161;SDS011;56269;51.738;21.652;2022-08-21T00:19:00;10.57;;;5.40;;
69161;SDS011;56269;51.738;21.652;2022-08-21T00:21:27;9.48;;;5.38;;
69161;SDS011;56269;51.738;21.652;2022-08-21T00:23:53;11.23;;;5.95;;
69161;SDS011;56269;51.738;21.652;2022-08-21T00:26:19;10.15;;;6.00;;
69161;SDS011;56269;51.738;21.652;2022-08-21T00:28:45;11.20;;;5.60;;
69161;SDS011;56269;51.738;21.652;2022-08-21T00:31:14;12.07;;;5.80;;
69161;SDS011;56269;51.738;21.652;2022-08-21T00:33:41;11.40;;;6.10;;
69161;SDS011;56269;51.738;21.652;2022-08-21T00:36:07;11.00;;;6.40;;
69161;SDS011;56269;51.738;21.652;2022-08-21T00:38:33;10.35;;;6.30;;
69161;SDS011;56269;51.738;21.652;2022-08-21T00:41:00;11.50;;;6.30;;
69161;SDS011;56269;51.738;21.652;2022-08-21T00:43:30;10.25;;;6.32;;
69161;SDS011;56269;51.738;21.652;2022-08-21T00:45:58;12.07;;;6.55;;
69161;SDS011;56269;51.738;21.652;2022-08-21T00:48:24;10.93;;;6.43;;
69161;SDS011;56269;51.738;21.652;2022-08-21T00:51:01;11.27;;;6.07;;
69161;SDS011;56269;51.738;21.652;2022-08-21T00:53:39;16.87;;;6.63;;
69161;SDS011;56269;51.738;21.652;2022-08-21T00:56:09;11.02;;;6.40;;
69161;SDS011;56269;51.738;21.652;2022-08-21T00:58:37;12.27;;;6.78;;
69161;SDS011;56269;51.738;21.652;2022-08-21T01:01:07;12.07;;;6.90;;
69161;SDS011;56269;51.738;21.652;2022-08-21T01:03:34;11.25;;;6.65;;
69161;SDS011;56269;51.738;21.652;2022-08-21T01:06:01;13.10;;;6.77;;
69161;SDS011;56269;51.738;21.652;2022-08-21T01:08:28;12.82;;;6.70;;
69161;SDS011;56269;51.738;21.652;2022-08-21T01:10:55;11.20;;;6.43;;
69161;SDS011;56269;51.738;21.652;2022-08-21T01:13:25;13.20;;;6.85;;
69161;SDS011;56269;51.738;21.652;2022-08-21T01:15:54;12.48;;;7.60;;
69161;SDS011;56269;51.738;21.652;2022-08-21T01:18:22;11.63;;;6.93;;
69161;SDS011;56269;51.738;21.652;2022-08-21T01:21:11;12.27;;;7.15;;
69161;SDS011;56269;51.738;21.652;2022-08-21T01:23:41;12.98;;;6.90;;
69161;SDS011;56269;51.738;21.652;2022-08-21T01:26:10;12.80;;;6.90;;
69161;SDS011;56269;51.738;21.652;2022-08-21T01:28:42;11.15;;;6.43;;
69161;SDS011;56269;51.738;21.652;2022-08-21T01:31:15;12.37;;;6.50;;
69161;SDS011;56269;51.738;21.652;2022-08-21T01:33:43;12.73;;;6.57;;
69161;SDS011;56269;51.738;21.652;2022-08-21T01:36:08;13.05;;;6.82;;
69161;SDS011;56269;51.738;21.652;2022-08-21T01:38:35;12.15;;;6.80;;
69161;SDS011;56269;51.738;21.652;2022-08-21T01:41:01;11.73;;;6.87;;
69161;SDS011;56269;51.738;21.652;2022-08-21T01:43:27;14.13;;;6.83;;
69161;SDS011;56269;51.738;21.652;2022-08-21T01:45:53;11.68;;;6.53;;
69161;SDS011;56269;51.738;21.652;2022-08-21T01:48:19;13.63;;;6.88;;
69161;SDS011;56269;51.738;21.652;2022-08-21T01:50:45;12.75;;;7.03;;
69161;SDS011;56269;51.738;21.652;2022-08-21T01:53:11;13.17;;;6.87;;
69161;SDS011;56269;51.738;21.652;2022-08-21T01:55:38;12.25;;;6.90;;
69161;SDS011;56269;51.738;21.652;2022-08-21T01:58:04;12.32;;;7.18;;
69161;SDS011;56269;51.738;21.652;2022-08-21T02:00:30;13.27;;;6.78;;
69161;SDS011;56269;51.738;21.652;2022-08-21T02:02:57;10.63;;;6.20;;
69161;SDS011;56269;51.738;21.652;2022-08-21T02:05:22;11.15;;;6.30;;
69161;SDS011;56269;51.738;21.652;2022-08-21T02:07:50;10.77;;;6.45;;
69161;SDS011;56269;51.738;21.652;2022-08-21T02:10:20;11.25;;;6.50;;
69161;SDS011;56269;51.738;21.652;2022-08-21T02:12:52;11.07;;;6.75;;
69161;SDS011;56269;51.738;21.652;2022-08-21T02:15:19;13.03;;;6.93;;
69161;SDS011;56269;51.738;21.652;2022-08-21T02:17:48;11.75;;;6.38;;
69161;SDS011;56269;51.738;21.652;2022-08-21T02:20:18;11.50;;;6.65;;
69161;SDS011;56269;51.738;21.652;2022-08-21T02:22:50;14.48;;;7.10;;
69161;SDS011;56269;51.738;21.652;2022-08-21T02:25:18;12.20;;;6.90;;
69161;SDS011;56269;51.738;21.652;2022-08-21T02:27:45;12.13;;;6.70;;
69161;SDS011;56269;51.738;21.652;2022-08-21T02:30:14;11.23;;;6.70;;
69161;SDS011;56269;51.738;21.652;2022-08-21T02:32:43;12.77;;;6.88;;
69161;SDS011;56269;51.738;21.652;2022-08-21T02:35:10;12.57;;;7.05;;
69161;SDS011;56269;51.738;21.652;2022-08-21T02:37:50;11.52;;;6.82;;
69161;SDS011;56269;51.738;21.652;2022-08-21T02:40:23;12.37;;;6.77;;
69161;SDS011;56269;51.738;21.652;2022-08-21T02:42:51;13.05;;;7.15;;
69161;SDS011;56269;51.738;21.652;2022-08-21T02:45:18;12.50;;;6.38;;
69161;SDS011;56269;51.738;21.652;2022-08-21T02:47:49;12.13;;;6.80;;
69161;SDS011;56269;51.738;21.652;2022-08-21T02:50:21;11.30;;;6.95;;
69161;SDS011;56269;51.738;21.652;2022-08-21T02:52:56;12.67;;;7.30;;
69161;SDS011;56269;51.738;21.652;2022-08-21T02:55:23;13.18;;;7.40;;
69161;SDS011;56269;51.738;21.652;2022-08-21T02:57:53;12.93;;;6.82;;
69161;SDS011;56269;51.738;21.652;2022-08-21T03:00:20;13.23;;;7.28;;
69161;SDS011;56269;51.738;21.652;2022-08-21T03:02:47;12.45;;;7.00;;
69161;SDS011;56269;51.738;21.652;2022-08-21T03:05:14;12.47;;;7.20;;
69161;SDS011;56269;51.738;21.652;2022-08-21T03:07:42;12.40;;;7.28;;
69161;SDS011;56269;51.738;21.652;2022-08-21T03:10:09;10.77;;;6.57;;
69161;SDS011;56269;51.738;21.652;2022-08-21T03:12:36;12.95;;;7.22;;
69161;SDS011;56269;51.738;21.652;2022-08-21T03:15:03;12.07;;;7.10;;
69161;SDS011;56269;51.738;21.652;2022-08-21T03:17:32;11.47;;;6.57;;
69161;SDS011;56269;51.738;21.652;2022-08-21T03:19:58;11.98;;;6.85;;
69161;SDS011;56269;51.738;21.652;2022-08-21T03:22:25;11.32;;;6.50;;
69161;SDS011;56269;51.738;21.652;2022-08-21T03:24:51;13.38;;;7.05;;
69161;SDS011;56269;51.738;21.652;2022-08-21T03:27:17;11.37;;;6.60;;
69161;SDS011;56269;51.738;21.652;2022-08-21T03:29:43;12.07;;;6.80;;
69161;SDS011;56269;51.738;21.652;2022-08-21T03:32:09;13.57;;;6.97;;
69161;SDS011;56269;51.738;21.652;2022-08-21T03:34:37;13.27;;;6.55;;
69161;SDS011;56269;51.738;21.652;2022-08-21T03:37:05;11.38;;;6.95;;
69161;SDS011;56269;51.738;21.652;2022-08-21T03:39:33;12.27;;;7.30;;
69161;SDS011;56269;51.738;21.652;2022-08-21T03:42:00;13.02;;;7.18;;
69161;SDS011;56269;51.738;21.652;2022-08-21T03:44:27;13.05;;;7.15;;
69161;SDS011;56269;51.738;21.652;2022-08-21T03:46:54;14.20;;;7.50;;
69161;SDS011;56269;51.738;21.652;2022-08-21T03:49:21;11.10;;;6.82;;
69161;SDS011;56269;51.738;21.652;2022-08-21T03:51:47;12.27;;;6.53;;
69161;SDS011;56269;51.738;21.652;2022-08-21T03:54:13;11.20;;;6.78;;
69161;SDS011;56269;51.738;21.652;2022-08-21T03:56:39;12.93;;;6.95;;
69161;SDS011;56269;51.738;21.652;2022-08-21T03:59:05;13.18;;;7.18;;
69161;SDS011;56269;51.738;21.652;2022-08-21T04:01:31;11.13;;;6.63;;
69161;SDS011;56269;51.738;21.652;2022-08-21T04:03:58;13.88;;;7.00;;
69161;SDS011;56269;51.738;21.652;2022-08-21T04:06:24;11.23;;;6.45;;
69161;SDS011;56269;51.738;21.652;2022-08-21T04:08:52;12.95;;;6.63;;
69161;SDS011;56269;51.738;21.652;2022-08-21T04:11:18;11.32;;;6.80;;
69161;SDS011;56269;51.738;21.652;2022-08-21T04:13:45;13.87;;;6.93;;
69161;SDS011;56269;51.738;21.652;2022-08-21T04:16:12;10.73;;;6.18;;
69161;SDS011;56269;51.738;21.652;2022-08-21T04:18:39;10.13;;;5.88;;
69161;SDS011;56269;51.738;21.652;2022-08-21T04:21:05;11.77;;;6.72;;
69161;SDS011;56269;51.738;21.652;2022-08-21T04:23:32;10.35;;;6.30;;
69161;SDS011;56269;51.738;21.652;2022-08-21T04:25:59;12.70;;;6.23;;
69161;SDS011;56269;51.738;21.652;2022-08-21T04:28:26;11.43;;;6.20;;
69161;SDS011;56269;51.738;21.652;2022-08-21T04:30:53;11.60;;;6.70;;
69161;SDS011;56269;51.738;21.652;2022-08-21T04:33:19;10.80;;;5.95;;
69161;SDS011;56269;51.738;21.652;2022-08-21T04:35:47;10.35;;;6.10;;
69161;SDS011;56269;51.738;21.652;2022-08-21T04:38:14;10.63;;;6.30;;
69161;SDS011;56269;51.738;21.652;2022-08-21T04:40:40;12.23;;;6.60;;
69161;SDS011;56269;51.738;21.652;2022-08-21T04:43:07;11.40;;;5.55;;
69161;SDS011;56269;51.738;21.652;2022-08-21T04:45:36;10.00;;;5.70;;
69161;SDS011;56269;51.738;21.652;2022-08-21T04:48:04;10.13;;;5.80;;
69161;SDS011;56269;51.738;21.652;2022-08-21T04:53:10;9.10;;;5.72;;
69161;SDS011;56269;51.738;21.652;2022-08-21T04:55:39;10.23;;;6.00;;
69161;SDS011;56269;51.738;21.652;2022-08-21T04:58:07;10.52;;;5.90;;
69161;SDS011;56269;51.738;21.652;2022-08-21T05:00:35;10.85;;;5.63;;
69161;SDS011;56269;51.738;21.652;2022-08-21T05:03:02;11.33;;;5.80;;
69161;SDS011;56269;51.738;21.652;2022-08-21T05:05:31;11.45;;;5.65;;
69161;SDS011;56269;51.738;21.652;2022-08-21T05:07:58;9.95;;;5.53;;
69161;SDS011;56269;51.738;21.652;2022-08-21T05:10:26;10.63;;;6.07;;
69161;SDS011;56269;51.738;21.652;2022-08-21T05:12:53;13.02;;;5.53;;
69161;SDS011;56269;51.738;21.652;2022-08-21T05:15:20;11.60;;;5.60;;
69161;SDS011;56269;51.738;21.652;2022-08-21T05:17:46;9.15;;;5.13;;
69161;SDS011;56269;51.738;21.652;2022-08-21T05:20:12;9.73;;;5.30;;
69161;SDS011;56269;51.738;21.652;2022-08-21T05:22:39;9.32;;;4.95;;
69161;SDS011;56269;51.738;21.652;2022-08-21T05:25:06;9.23;;;5.13;;
69161;SDS011;56269;51.738;21.652;2022-08-21T05:27:33;10.95;;;5.30;;
69161;SDS011;56269;51.738;21.652;2022-08-21T05:29:59;9.45;;;5.57;;
69161;SDS011;56269;51.738;21.652;2022-08-21T05:32:26;11.07;;;5.50;;
69161;SDS011;56269;51.738;21.652;2022-08-21T05:34:54;10.02;;;4.80;;
69161;SDS011;56269;51.738;21.652;2022-08-21T05:37:20;8.43;;;4.80;;
69161;SDS011;56269;51.738;21.652;2022-08-21T05:39:46;10.20;;;5.32;;
69161;SDS011;56269;51.738;21.652;2022-08-21T05:42:12;9.50;;;5.43;;
69161;SDS011;56269;51.738;21.652;2022-08-21T05:44:38;9.25;;;4.90;;
69161;SDS011;56269;51.738;21.652;2022-08-21T05:47:05;9.87;;;5.43;;
69161;SDS011;56269;51.738;21.652;2022-08-21T05:49:34;11.05;;;5.20;;
69161;SDS011;56269;51.738;21.652;2022-08-21T05:52:00;8.90;;;5.20;;
69161;SDS011;56269;51.738;21.652;2022-08-21T05:54:27;9.13;;;4.82;;
69161;SDS011;56269;51.738;21.652;2022-08-21T05:56:53;9.40;;;5.00;;
69161;SDS011;56269;51.738;21.652;2022-08-21T05:59:19;9.50;;;5.00;;
69161;SDS011;56269;51.738;21.652;2022-08-21T06:01:46;8.55;;;4.63;;
69161;SDS011;56269;51.738;21.652;2022-08-21T06:04:12;9.13;;;4.35;;
69161;SDS011;56269;51.738;21.652;2022-08-21T06:06:38;8.35;;;4.53;;
69161;SDS011;56269;51.738;21.652;2022-08-21T06:09:05;8.73;;;4.70;;
69161;SDS011;56269;51.738;21.652;2022-08-21T06:11:31;10.60;;;5.35;;
69161;SDS011;56269;51.738;21.652;2022-08-21T06:13:58;9.48;;;5.10;;
69161;SDS011;56269;51.738;21.652;2022-08-21T06:16:25;8.60;;;4.78;;
69161;SDS011;56269;51.738;21.652;2022-08-21T06:18:51;8.20;;;4.65;;
69161;SDS011;56269;51.738;21.652;2022-08-21T06:21:18;8.53;;;4.30;;
69161;SDS011;56269;51.738;21.652;2022-08-21T06:23:44;12.10;;;5.28;;
69161;SDS011;56269;51.738;21.652;2022-08-21T06:26:12;12.63;;;5.82;;
69161;SDS011;56269;51.738;21.652;2022-08-21T06:28:38;9.80;;;5.25;;
69161;SDS011;56269;51.738;21.652;2022-08-21T06:31:19;10.93;;;5.43;;
69161;SDS011;56269;51.738;21.652;2022-08-21T06:33:47;8.87;;;4.83;;
69161;SDS011;56269;51.738;21.652;2022-08-21T06:36:14;8.32;;;4.63;;
69161;SDS011;56269;51.738;21.652;2022-08-21T06:38:40;27.27;;;5.10;;
69161;SDS011;56269;51.738;21.652;2022-08-21T06:41:06;9.75;;;4.68;;
69161;SDS011;56269;51.738;21.652;2022-08-21T06:43:33;9.93;;;5.10;;
69161;SDS011;56269;51.738;21.652;2022-08-21T06:45:59;9.13;;;4.60;;
69161;SDS011;56269;51.738;21.652;2022-08-21T06:48:25;7.75;;;4.55;;
69161;SDS011;56269;51.738;21.652;2022-08-21T06:50:51;9.80;;;4.70;;
69161;SDS011;56269;51.738;21.652;2022-08-21T06:53:18;8.82;;;4.78;;
69161;SDS011;56269;51.738;21.652;2022-08-21T06:55:46;8.38;;;4.70;;
69161;SDS011;56269;51.738;21.652;2022-08-21T06:58:13;8.00;;;4.30;;
69161;SDS011;56269;51.738;21.652;2022-08-21T07:00:42;8.90;;;4.40;;
69161;SDS011;56269;51.738;21.652;2022-08-21T07:05:47;8.77;;;4.50;;
69161;SDS011;56269;51.738;21.652;2022-08-21T07:08:13;10.98;;;5.13;;
69161;SDS011;56269;51.738;21.652;2022-08-21T07:10:39;8.47;;;4.97;;
69161;SDS011;56269;51.738;21.652;2022-08-21T07:13:05;9.15;;;5.20;;
69161;SDS011;56269;51.738;21.652;2022-08-21T07:15:31;9.55;;;5.15;;
69161;SDS011;56269;51.738;21.652;2022-08-21T07:17:59;8.55;;;4.95;;
69161;SDS011;56269;51.738;21.652;2022-08-21T07:20:27;8.27;;;4.70;;
69161;SDS011;56269;51.738;21.652;2022-08-21T07:22:55;9.02;;;4.97;;
69161;SDS011;56269;51.738;21.652;2022-08-21T07:25:23;8.02;;;4.53;;
69161;SDS011;56269;51.738;21.652;2022-08-21T07:27:49;9.98;;;4.80;;
69161;SDS011;56269;51.738;21.652;2022-08-21T07:30:15;8.10;;;4.73;;
69161;SDS011;56269;51.738;21.652;2022-08-21T07:32:40;8.13;;;4.93;;
69161;SDS011;56269;51.738;21.652;2022-08-21T07:35:07;8.70;;;4.95;;
69161;SDS011;56269;51.738;21.652;2022-08-21T07:37:33;9.52;;;4.63;;
69161;SDS011;56269;51.738;21.652;2022-08-21T07:39:59;8.38;;;4.80;;
69161;SDS011;56269;51.738;21.652;2022-08-21T07:42:25;8.50;;;4.67;;
69161;SDS011;56269;51.738;21.652;2022-08-21T07:44:51;10.18;;;4.57;;
69161;SDS011;56269;51.738;21.652;2022-08-21T07:47:17;9.32;;;4.32;;
69161;SDS011;56269;51.738;21.652;2022-08-21T07:49:43;7.85;;;4.70;;
69161;SDS011;56269;51.738;21.652;2022-08-21T07:52:10;10.80;;;4.50;;
69161;SDS011;56269;51.738;21.652;2022-08-21T07:54:36;8.37;;;4.40;;
69161;SDS011;56269;51.738;21.652;2022-08-21T07:57:02;8.75;;;4.65;;
69161;SDS011;56269;51.738;21.652;2022-08-21T07:59:28;9.90;;;4.60;;
69161;SDS011;56269;51.738;21.652;2022-08-21T08:01:54;8.68;;;4.85;;
69161;SDS011;56269;51.738;21.652;2022-08-21T08:04:21;8.73;;;4.33;;
69161;SDS011;56269;51.738;21.652;2022-08-21T08:06:47;8.45;;;4.75;;
69161;SDS011;56269;51.738;21.652;2022-08-21T08:09:13;9.65;;;4.63;;
69161;SDS011;56269;51.738;21.652;2022-08-21T08:11:41;7.72;;;4.40;;
69161;SDS011;56269;51.738;21.652;2022-08-21T08:14:09;7.88;;;4.20;;
69161;SDS011;56269;51.738;21.652;2022-08-21T08:16:35;8.17;;;4.17;;
69161;SDS011;56269;51.738;21.652;2022-08-21T08:19:01;7.20;;;4.30;;
69161;SDS011;56269;51.738;21.652;2022-08-21T08:21:28;7.20;;;4.03;;
69161;SDS011;56269;51.738;21.652;2022-08-21T08:23:55;9.43;;;4.13;;
69161;SDS011;56269;51.738;21.652;2022-08-21T08:26:21;7.40;;;4.22;;
69161;SDS011;56269;51.738;21.652;2022-08-21T08:28:48;8.27;;;4.63;;
69161;SDS011;56269;51.738;21.652;2022-08-21T08:31:14;7.43;;;4.07;;
69161;SDS011;56269;51.738;21.652;2022-08-21T08:33:40;9.07;;;4.18;;
69161;SDS011;56269;51.738;21.652;2022-08-21T08:36:12;8.00;;;4.00;;
69161;SDS011;56269;51.738;21.652;2022-08-21T08:38:39;8.45;;;4.13;;
69161;SDS011;56269;51.738;21.652;2022-08-21T08:43:38;7.68;;;3.88;;
69161;SDS011;56269;51.738;21.652;2022-08-21T08:46:10;7.15;;;3.80;;
69161;SDS011;56269;51.738;21.652;2022-08-21T08:48:42;6.82;;;3.40;;
69161;SDS011;56269;51.738;21.652;2022-08-21T08:51:40;9.77;;;4.10;;
69161;SDS011;56269;51.738;21.652;2022-08-21T08:54:17;7.50;;;4.23;;
69161;SDS011;56269;51.738;21.652;2022-08-21T08:56:51;9.20;;;3.80;;
69161;SDS011;56269;51.738;21.652;2022-08-21T08:59:21;6.70;;;3.45;;
69161;SDS011;56269;51.738;21.652;2022-08-21T09:01:53;6.95;;;3.20;;
69161;SDS011;56269;51.738;21.652;2022-08-21T09:04:22;6.37;;;3.50;;
69161;SDS011;56269;51.738;21.652;2022-08-21T09:06:56;8.07;;;3.80;;
69161;SDS011;56269;51.738;21.652;2022-08-21T09:20:55;8.10;;;3.90;;
69161;SDS011;56269;51.738;21.652;2022-08-21T09:26:36;7.18;;;3.95;;
69161;SDS011;56269;51.738;21.652;2022-08-21T09:29:27;8.55;;;4.03;;
69161;SDS011;56269;51.738;21.652;2022-08-21T09:31:57;6.78;;;3.95;;
69161;SDS011;56269;51.738;21.652;2022-08-21T09:34:24;7.47;;;4.23;;
69161;SDS011;56269;51.738;21.652;2022-08-21T09:36:52;7.70;;;4.05;;
69161;SDS011;56269;51.738;21.652;2022-08-21T09:39:30;7.72;;;3.95;;
69161;SDS011;56269;51.738;21.652;2022-08-21T09:42:04;8.05;;;4.05;;
69161;SDS011;56269;51.738;21.652;2022-08-21T09:44:34;7.80;;;4.40;;
69161;SDS011;56269;51.738;21.652;2022-08-21T09:47:05;7.70;;;4.00;;
69161;SDS011;56269;51.738;21.652;2022-08-21T09:49:34;8.13;;;3.90;;
69161;SDS011;56269;51.738;21.652;2022-08-21T09:52:03;7.70;;;4.00;;
69161;SDS011;56269;51.738;21.652;2022-08-21T09:54:40;6.65;;;4.00;;
69161;SDS011;56269;51.738;21.652;2022-08-21T09:59:54;7.20;;;4.13;;
69161;SDS011;56269;51.738;21.652;2022-08-21T10:02:31;8.45;;;3.97;;
69161;SDS011;56269;51.738;21.652;2022-08-21T10:05:01;7.10;;;4.13;;
69161;SDS011;56269;51.738;21.652;2022-08-21T10:07:29;7.18;;;4.10;;
69161;SDS011;56269;51.738;21.652;2022-08-21T10:12:35;6.87;;;3.80;;
69161;SDS011;56269;51.738;21.652;2022-08-21T10:15:20;7.28;;;4.20;;
69161;SDS011;56269;51.738;21.652;2022-08-21T10:21:14;7.30;;;4.00;;
69161;SDS011;56269;51.738;21.652;2022-08-21T10:29:46;6.63;;;3.50;;
69161;SDS011;56269;51.738;21.652;2022-08-21T10:35:06;7.25;;;3.40;;
69161;SDS011;56269;51.738;21.652;2022-08-21T10:40:26;6.20;;;3.10;;
69161;SDS011;56269;51.738;21.652;2022-08-21T10:43:03;5.88;;;3.30;;
69161;SDS011;56269;51.738;21.652;2022-08-21T10:46:33;6.78;;;3.63;;
69161;SDS011;56269;51.738;21.652;2022-08-21T10:48:47;7.07;;;3.55;;
69161;SDS011;56269;51.738;21.652;2022-08-21T10:51:47;8.95;;;3.58;;
69161;SDS011;56269;51.738;21.652;2022-08-21T10:54:42;7.00;;;3.33;;
69161;SDS011;56269;51.738;21.652;2022-08-21T11:00:08;6.80;;;3.30;;
69161;SDS011;56269;51.738;21.652;2022-08-21T11:02:58;7.38;;;3.30;;
69161;SDS011;56269;51.738;21.652;2022-08-21T11:05:54;7.18;;;3.35;;
69161;SDS011;56269;51.738;21.652;2022-08-21T11:08:26;5.90;;;3.10;;
69161;SDS011;56269;51.738;21.652;2022-08-21T11:27:41;6.68;;;3.17;;
69161;SDS011;56269;51.738;21.652;2022-08-21T11:30:12;5.47;;;3.13;;
69161;SDS011;56269;51.738;21.652;2022-08-21T11:38:10;7.10;;;3.30;;
69161;SDS011;56269;51.738;21.652;2022-08-21T11:43:44;6.00;;;3.08;;
69161;SDS011;56269;51.738;21.652;2022-08-21T11:46:20;5.40;;;2.55;;
69161;SDS011;56269;51.738;21.652;2022-08-21T11:49:06;7.03;;;3.23;;
69161;SDS011;56269;51.738;21.652;2022-08-21T11:52:18;8.38;;;3.50;;
69161;SDS011;56269;51.738;21.652;2022-08-21T12:00:03;6.22;;;3.30;;
69161;SDS011;56269;51.738;21.652;2022-08-21T12:02:36;6.67;;;3.33;;
69161;SDS011;56269;51.738;21.652;2022-08-21T12:05:11;6.18;;;3.20;;
69161;SDS011;56269;51.738;21.652;2022-08-21T12:08:05;5.80;;;2.90;;
69161;SDS011;56269;51.738;21.652;2022-08-21T12:10:38;6.78;;;3.00;;
69161;SDS011;56269;51.738;21.652;2022-08-21T12:13:21;5.85;;;2.90;;
69161;SDS011;56269;51.738;21.652;2022-08-21T12:15:49;6.10;;;3.07;;
69161;SDS011;56269;51.738;21.652;2022-08-21T12:18:23;5.78;;;3.20;;
69161;SDS011;56269;51.738;21.652;2022-08-21T12:21:01;7.47;;;3.30;;
69161;SDS011;56269;51.738;21.652;2022-08-21T12:23:59;7.05;;;3.03;;
69161;SDS011;56269;51.738;21.652;2022-08-21T12:26:27;7.68;;;2.85;;
69161;SDS011;56269;51.738;21.652;2022-08-21T12:29:11;6.07;;;2.80;;
69161;SDS011;56269;51.738;21.652;2022-08-21T12:31:50;6.20;;;2.90;;
69161;SDS011;56269;51.738;21.652;2022-08-21T12:34:46;6.00;;;2.90;;
69161;SDS011;56269;51.738;21.652;2022-08-21T12:37:22;6.07;;;2.90;;
69161;SDS011;56269;51.738;21.652;2022-08-21T12:40:18;6.65;;;3.28;;
69161;SDS011;56269;51.738;21.652;2022-08-21T12:42:49;5.80;;;2.90;;
69161;SDS011;56269;51.738;21.652;2022-08-21T12:45:36;6.05;;;3.13;;
69161;SDS011;56269;51.738;21.652;2022-08-21T12:50:38;5.80;;;3.17;;
69161;SDS011;56269;51.738;21.652;2022-08-21T12:53:10;6.30;;;3.00;;
69161;SDS011;56269;51.738;21.652;2022-08-21T12:55:44;6.00;;;3.07;;
69161;SDS011;56269;51.738;21.652;2022-08-21T12:58:20;6.18;;;3.17;;
69161;SDS011;56269;51.738;21.652;2022-08-21T13:00:52;6.15;;;3.00;;
69161;SDS011;56269;51.738;21.652;2022-08-21T13:03:21;6.20;;;3.00;;
69161;SDS011;56269;51.738;21.652;2022-08-21T13:05:49;6.50;;;2.90;;
69161;SDS011;56269;51.738;21.652;2022-08-21T13:08:18;6.65;;;3.08;;
69161;SDS011;56269;51.738;21.652;2022-08-21T13:10:46;6.03;;;3.00;;
69161;SDS011;56269;51.738;21.652;2022-08-21T13:13:20;5.68;;;2.80;;
69161;SDS011;56269;51.738;21.652;2022-08-21T13:15:48;6.57;;;3.28;;
69161;SDS011;56269;51.738;21.652;2022-08-21T13:18:23;6.23;;;3.17;;
69161;SDS011;56269;51.738;21.652;2022-08-21T13:21:02;6.20;;;3.35;;
69161;SDS011;56269;51.738;21.652;2022-08-21T13:23:35;5.68;;;2.80;;
69161;SDS011;56269;51.738;21.652;2022-08-21T13:26:11;5.85;;;2.83;;
69161;SDS011;56269;51.738;21.652;2022-08-21T13:28:45;7.05;;;3.10;;
69161;SDS011;56269;51.738;21.652;2022-08-21T13:31:15;6.10;;;3.13;;
69161;SDS011;56269;51.738;21.652;2022-08-21T13:33:46;6.20;;;2.92;;
69161;SDS011;56269;51.738;21.652;2022-08-21T13:36:18;7.38;;;2.92;;
69161;SDS011;56269;51.738;21.652;2022-08-21T13:38:51;6.40;;;3.00;;
69161;SDS011;56269;51.738;21.652;2022-08-21T13:41:26;7.15;;;3.28;;
69161;SDS011;56269;51.738;21.652;2022-08-21T13:43:59;6.13;;;3.07;;
69161;SDS011;56269;51.738;21.652;2022-08-21T13:46:39;6.30;;;2.97;;
69161;SDS011;56269;51.738;21.652;2022-08-21T13:49:06;7.72;;;3.03;;
69161;SDS011;56269;51.738;21.652;2022-08-21T13:51:35;7.18;;;3.55;;
69161;SDS011;56269;51.738;21.652;2022-08-21T13:54:12;6.20;;;3.13;;
69161;SDS011;56269;51.738;21.652;2022-08-21T13:56:41;6.57;;;2.70;;
69161;SDS011;56269;51.738;21.652;2022-08-21T13:59:09;6.75;;;3.47;;
69161;SDS011;56269;51.738;21.652;2022-08-21T14:01:36;6.82;;;3.20;;
69161;SDS011;56269;51.738;21.652;2022-08-21T14:04:22;6.40;;;3.15;;
69161;SDS011;56269;51.738;21.652;2022-08-21T14:06:50;6.13;;;3.22;;
69161;SDS011;56269;51.738;21.652;2022-08-21T14:09:28;6.77;;;3.37;;
69161;SDS011;56269;51.738;21.652;2022-08-21T14:11:57;7.47;;;3.50;;
69161;SDS011;56269;51.738;21.652;2022-08-21T14:14:31;7.97;;;3.08;;
69161;SDS011;56269;51.738;21.652;2022-08-21T14:17:01;6.22;;;3.53;;
69161;SDS011;56269;51.738;21.652;2022-08-21T14:19:36;6.65;;;3.50;;
69161;SDS011;56269;51.738;21.652;2022-08-21T14:24:59;7.63;;;3.72;;
69161;SDS011;56269;51.738;21.652;2022-08-21T14:27:54;7.00;;;3.78;;
69161;SDS011;56269;51.738;21.652;2022-08-21T14:30:32;7.93;;;3.70;;
69161;SDS011;56269;51.738;21.652;2022-08-21T14:33:00;6.30;;;3.60;;
69161;SDS011;56269;51.738;21.652;2022-08-21T14:35:28;10.57;;;4.17;;
69161;SDS011;56269;51.738;21.652;2022-08-21T14:37:54;6.63;;;3.90;;
69161;SDS011;56269;51.738;21.652;2022-08-21T14:40:22;6.60;;;3.70;;
69161;SDS011;56269;51.738;21.652;2022-08-21T14:42:50;6.93;;;3.70;;
69161;SDS011;56269;51.738;21.652;2022-08-21T14:45:17;6.88;;;3.50;;
69161;SDS011;56269;51.738;21.652;2022-08-21T14:47:44;7.63;;;3.70;;
69161;SDS011;56269;51.738;21.652;2022-08-21T14:50:10;7.22;;;3.72;;
69161;SDS011;56269;51.738;21.652;2022-08-21T14:52:37;7.47;;;3.70;;
69161;SDS011;56269;51.738;21.652;2022-08-21T14:55:05;5.20;;;2.40;;
69161;SDS011;56269;51.738;21.652;2022-08-21T14:57:32;7.20;;;3.40;;
69161;SDS011;56269;51.738;21.652;2022-08-21T15:00:00;6.63;;;3.57;;
69161;SDS011;56269;51.738;21.652;2022-08-21T15:02:26;6.32;;;3.58;;
69161;SDS011;56269;51.738;21.652;2022-08-21T15:04:52;8.10;;;4.03;;
69161;SDS011;56269;51.738;21.652;2022-08-21T15:07:18;6.60;;;3.25;;
69161;SDS011;56269;51.738;21.652;2022-08-21T15:09:44;8.80;;;3.83;;
69161;SDS011;56269;51.738;21.652;2022-08-21T15:12:10;7.95;;;3.75;;
69161;SDS011;56269;51.738;21.652;2022-08-21T15:14:39;6.85;;;3.30;;
69161;SDS011;56269;51.738;21.652;2022-08-21T15:17:06;6.97;;;3.60;;
69161;SDS011;56269;51.738;21.652;2022-08-21T15:19:34;7.25;;;3.70;;
69161;SDS011;56269;51.738;21.652;2022-08-21T15:22:01;7.90;;;3.40;;
69161;SDS011;56269;51.738;21.652;2022-08-21T15:24:27;7.07;;;3.60;;
69161;SDS011;56269;51.738;21.652;2022-08-21T15:26:53;6.78;;;3.50;;
69161;SDS011;56269;51.738;21.652;2022-08-21T15:29:20;6.85;;;3.65;;
69161;SDS011;56269;51.738;21.652;2022-08-21T15:32:16;6.75;;;3.30;;
69161;SDS011;56269;51.738;21.652;2022-08-21T15:34:48;7.07;;;3.47;;
69161;SDS011;56269;51.738;21.652;2022-08-21T15:37:15;6.50;;;3.30;;
69161;SDS011;56269;51.738;21.652;2022-08-21T15:39:41;6.32;;;3.30;;
69161;SDS011;56269;51.738;21.652;2022-08-21T15:42:07;6.65;;;3.03;;
69161;SDS011;56269;51.738;21.652;2022-08-21T15:44:34;6.25;;;3.22;;
69161;SDS011;56269;51.738;21.652;2022-08-21T15:47:00;6.50;;;3.20;;
69161;SDS011;56269;51.738;21.652;2022-08-21T15:49:27;6.20;;;3.10;;
69161;SDS011;56269;51.738;21.652;2022-08-21T15:51:52;6.90;;;3.40;;
69161;SDS011;56269;51.738;21.652;2022-08-21T15:54:18;6.90;;;3.05;;
69161;SDS011;56269;51.738;21.652;2022-08-21T15:56:45;6.10;;;3.30;;
69161;SDS011;56269;51.738;21.652;2022-08-21T15:59:16;6.47;;;3.20;;
69161;SDS011;56269;51.738;21.652;2022-08-21T16:01:44;6.40;;;3.20;;
69161;SDS011;56269;51.738;21.652;2022-08-21T16:04:13;6.82;;;3.50;;
69161;SDS011;56269;51.738;21.652;2022-08-21T16:06:45;7.05;;;3.30;;